sensor_id;sensor_type;location;lat;lon;timestamp;pressure;altitude;pressure_sealevel;temperature;humidity
5574;BME280;2563;52.242;7.956;2022-11-03T00:01:36;100637.44;;;10.52;100.00
5574;BME280;2563;52.242;7.956;2022-11-03T00:04:03;100637.56;;;10.46;100.00
5574;BME280;2563;52.242;7.956;2022-11-03T00:06:28;100633.41;;;10.40;100.00
5574;BME280;2563;52.242;7.956;2022-11-03T00:08:57;100629.97;;;10.41;100.00
5574;BME280;2563;52.242;7.956;2022-11-03T00:11:23;100624.03;;;10.38;100.00
5574;BME280;2563;52.242;7.956;2022-11-03T00:13:48;100612.84;;;10.39;100.00
5574;BME280;2563;52.242;7.956;2022-11-03T00:16:13;100618.91;;;10.36;100.00
5574;BME280;2563;52.242;7.956;2022-11-03T00:18:39;100613.09;;;10.30;100.00
5574;BME280;2563;52.242;7.956;2022-11-03T00:21:09;100622.50;;;10.29;100.00
5574;BME280;2563;52.242;7.956;2022-11-03T00:23:39;100618.16;;;10.33;100.00
5574;BME280;2563;52.242;7.956;2022-11-03T00:26:15;100609.41;;;10.41;100.00
5574;BME280;2563;52.242;7.956;2022-11-03T00:28:43;100607.84;;;10.34;100.00
5574;BME280;2563;52.242;7.956;2022-11-03T00:31:14;100604.63;;;10.23;100.00
5574;BME280;2563;52.242;7.956;2022-11-03T00:33:40;100602.97;;;10.19;100.00
5574;BME280;2563;52.242;7.956;2022-11-03T00:36:07;100596.28;;;10.12;100.00
5574;BME280;2563;52.242;7.956;2022-11-03T00:38:34;100603.31;;;10.04;100.00
5574;BME280;2563;52.242;7.956;2022-11-03T00:41:02;100610.22;;;10.01;100.00
5574;BME280;2563;52.242;7.956;2022-11-03T00:43:29;100603.31;;;10.04;100.00
5574;BME280;2563;52.242;7.956;2022-11-03T00:45:55;100611.84;;;10.06;100.00
5574;BME280;2563;52.242;7.956;2022-11-03T00:48:21;100610.22;;;10.01;100.00
5574;BME280;2563;52.242;7.956;2022-11-03T00:53:25;100613.41;;;10.13;100.00
5574;BME280;2563;52.242;7.956;2022-11-03T00:55:51;100600.56;;;10.13;100.00
5574;BME280;2563;52.242;7.956;2022-11-03T00:58:16;100608.28;;;10.13;100.00
5574;BME280;2563;52.242;7.956;2022-11-03T01:00:42;100601.56;;;10.06;100.00
5574;BME280;2563;52.242;7.956;2022-11-03T01:03:07;100601.69;;;9.99;100.00
5574;BME280;2563;52.242;7.956;2022-11-03T01:05:32;100594.63;;;10.08;100.00
5574;BME280;2563;52.242;7.956;2022-11-03T01:08:16;100600.69;;;10.05;100.00
5574;BME280;2563;52.242;7.956;2022-11-03T01:10:41;100603.47;;;9.96;100.00
5574;BME280;2563;52.242;7.956;2022-11-03T01:13:27;100599.13;;;9.98;100.00
5574;BME280;2563;52.242;7.956;2022-11-03T01:15:56;100608.56;;;9.97;100.00
5574;BME280;2563;52.242;7.956;2022-11-03T01:18:23;100609.56;;;9.92;100.00
5574;BME280;2563;52.242;7.956;2022-11-03T01:20:55;100602.00;;;9.84;100.00
5574;BME280;2563;52.242;7.956;2022-11-03T01:23:21;100606.19;;;9.88;100.00
5574;BME280;2563;52.242;7.956;2022-11-03T01:25:46;100608.03;;;9.82;100.00
5574;BME280;2563;52.242;7.956;2022-11-03T01:28:12;100605.59;;;9.77;100.00
5574;BME280;2563;52.242;7.956;2022-11-03T01:30:37;100593.50;;;9.80;100.00
5574;BME280;2563;52.242;7.956;2022-11-03T01:33:02;100598.72;;;9.77;100.00
5574;BME280;2563;52.242;7.956;2022-11-03T01:35:28;100587.63;;;9.74;100.00
5574;BME280;2563;52.242;7.956;2022-11-03T01:37:53;100581.63;;;9.75;100.00
5574;BME280;2563;52.242;7.956;2022-11-03T01:40:21;100584.09;;;9.79;100.00
5574;BME280;2563;52.242;7.956;2022-11-03T01:42:46;100583.19;;;9.82;100.00
5574;BME280;2563;52.242;7.956;2022-11-03T01:45:11;100574.41;;;9.92;100.00
5574;BME280;2563;52.242;7.956;2022-11-03T01:47:37;100575.25;;;9.93;100.00
5574;BME280;2563;52.242;7.956;2022-11-03T01:50:09;100562.38;;;9.94;100.00
5574;BME280;2563;52.242;7.956;2022-11-03T01:52:51;100561.53;;;9.94;100.00
5574;BME280;2563;52.242;7.956;2022-11-03T01:55:21;100549.41;;;9.99;100.00
5574;BME280;2563;52.242;7.956;2022-11-03T01:58:02;100547.59;;;10.02;100.00
5574;BME280;2563;52.242;7.956;2022-11-03T02:00:28;100546.00;;;9.98;100.00
5574;BME280;2563;52.242;7.956;2022-11-03T02:02:54;100543.44;;;9.98;100.00
5574;BME280;2563;52.242;7.956;2022-11-03T02:05:21;100542.63;;;9.96;100.00
5574;BME280;2563;52.242;7.956;2022-11-03T02:07:52;100530.69;;;9.94;100.00
5574;BME280;2563;52.242;7.956;2022-11-03T02:10:21;100516.16;;;9.91;100.00
5574;BME280;2563;52.242;7.956;2022-11-03T02:12:47;100524.09;;;9.80;100.00
5574;BME280;2563;52.242;7.956;2022-11-03T02:15:13;100519.78;;;9.81;100.00
5574;BME280;2563;52.242;7.956;2022-11-03T02:17:41;100516.41;;;9.79;100.00
5574;BME280;2563;52.242;7.956;2022-11-03T02:20:15;100523.34;;;9.77;100.00
5574;BME280;2563;52.242;7.956;2022-11-03T02:23:17;100507.94;;;9.74;100.00
5574;BME280;2563;52.242;7.956;2022-11-03T02:25:47;100509.03;;;9.64;100.00
5574;BME280;2563;52.242;7.956;2022-11-03T02:28:41;100507.00;;;9.78;100.00
5574;BME280;2563;52.242;7.956;2022-11-03T02:31:18;100504.72;;;9.66;100.00
5574;BME280;2563;52.242;7.956;2022-11-03T02:36:31;100495.94;;;9.74;100.00
5574;BME280;2563;52.242;7.956;2022-11-03T02:39:04;100504.81;;;9.61;100.00
5574;BME280;2563;52.242;7.956;2022-11-03T02:41:34;100504.72;;;9.66;100.00
5574;BME280;2563;52.242;7.956;2022-11-03T02:44:02;100489.22;;;9.69;100.00
5574;BME280;2563;52.242;7.956;2022-11-03T02:46:29;100486.75;;;9.64;100.00
5574;BME280;2563;52.242;7.956;2022-11-03T02:48:55;100492.69;;;9.66;100.00
5574;BME280;2563;52.242;7.956;2022-11-03T02:51:22;100482.44;;;9.65;100.00
5574;BME280;2563;52.242;7.956;2022-11-03T02:54:13;100471.06;;;9.76;100.00
5574;BME280;2563;52.242;7.956;2022-11-03T02:56:49;100471.00;;;9.79;100.00
5574;BME280;2563;52.242;7.956;2022-11-03T02:59:20;100456.50;;;9.77;100.00
5574;BME280;2563;52.242;7.956;2022-11-03T03:01:53;100454.88;;;9.73;100.00
5574;BME280;2563;52.242;7.956;2022-11-03T03:06:53;100448.81;;;9.75;100.00
5574;BME280;2563;52.242;7.956;2022-11-03T03:09:24;100446.22;;;9.77;100.00
5574;BME280;2563;52.242;7.956;2022-11-03T03:11:52;100443.84;;;9.68;100.00
5574;BME280;2563;52.242;7.956;2022-11-03T03:14:27;100435.84;;;9.80;100.00
5574;BME280;2563;52.242;7.956;2022-11-03T03:25:00;100427.94;;;9.89;100.00
5574;BME280;2563;52.242;7.956;2022-11-03T03:27:28;100425.16;;;9.98;100.00
5574;BME280;2563;52.242;7.956;2022-11-03T03:30:00;100422.75;;;9.91;100.00
5574;BME280;2563;52.242;7.956;2022-11-03T03:32:30;100418.59;;;9.85;100.00
5574;BME280;2563;52.242;7.956;2022-11-03T03:34:59;100416.88;;;9.86;100.00
5574;BME280;2563;52.242;7.956;2022-11-03T03:37:26;100410.00;;;9.86;100.00
5574;BME280;2563;52.242;7.956;2022-11-03T03:39:55;100419.53;;;9.81;100.00
5574;BME280;2563;52.242;7.956;2022-11-03T03:42:24;100405.88;;;9.79;100.00
5574;BME280;2563;52.242;7.956;2022-11-03T03:44:53;100416.16;;;9.79;100.00
5574;BME280;2563;52.242;7.956;2022-11-03T03:47:27;100410.88;;;9.87;100.00
5574;BME280;2563;52.242;7.956;2022-11-03T03:49:53;100401.41;;;9.87;100.00
5574;BME280;2563;52.242;7.956;2022-11-03T03:52:19;100403.94;;;9.89;100.00
5574;BME280;2563;52.242;7.956;2022-11-03T03:54:45;100392.09;;;9.82;100.00
5574;BME280;2563;52.242;7.956;2022-11-03T03:57:13;100386.22;;;9.78;100.00
5574;BME280;2563;52.242;7.956;2022-11-03T03:59:41;100382.75;;;9.79;100.00
5574;BME280;2563;52.242;7.956;2022-11-03T04:02:06;100388.78;;;9.78;100.00
5574;BME280;2563;52.242;7.956;2022-11-03T04:04:31;100383.66;;;9.76;100.00
5574;BME280;2563;52.242;7.956;2022-11-03T04:06:57;100378.72;;;9.69;100.00
5574;BME280;2563;52.242;7.956;2022-11-03T04:09:41;100363.16;;;9.75;100.00
5574;BME280;2563;52.242;7.956;2022-11-03T04:12:07;100364.00;;;9.74;100.00
5574;BME280;2563;52.242;7.956;2022-11-03T04:14:52;100363.22;;;9.72;100.00
5574;BME280;2563;52.242;7.956;2022-11-03T04:17:38;100352.16;;;9.68;100.00
5574;BME280;2563;52.242;7.956;2022-11-03T04:20:24;100353.69;;;9.77;100.00
5574;BME280;2563;52.242;7.956;2022-11-03T04:23:09;100344.25;;;9.76;100.00
5574;BME280;2563;52.242;7.956;2022-11-03T04:25:34;100334.81;;;9.78;100.00
5574;BME280;2563;52.242;7.956;2022-11-03T04:27:59;100326.19;;;9.79;100.00
5574;BME280;2563;52.242;7.956;2022-11-03T04:30:25;100329.56;;;9.81;100.00
5574;BME280;2563;52.242;7.956;2022-11-03T04:32:51;100315.78;;;9.85;100.00
5574;BME280;2563;52.242;7.956;2022-11-03T04:37:45;100311.75;;;10.08;100.00
5574;BME280;2563;52.242;7.956;2022-11-03T04:40:14;100305.09;;;10.00;100.00
5574;BME280;2563;52.242;7.956;2022-11-03T04:42:40;100297.38;;;10.00;100.00
5574;BME280;2563;52.242;7.956;2022-11-03T04:45:13;100299.94;;;10.00;100.00
5574;BME280;2563;52.242;7.956;2022-11-03T04:47:41;100291.38;;;10.01;100.00
5574;BME280;2563;52.242;7.956;2022-11-03T04:50:14;100293.97;;;10.00;100.00
5574;BME280;2563;52.242;7.956;2022-11-03T04:52:41;100282.84;;;9.99;100.00
5574;BME280;2563;52.242;7.956;2022-11-03T04:55:13;100281.16;;;9.98;100.00
5574;BME280;2563;52.242;7.956;2022-11-03T04:57:39;100278.75;;;9.92;100.00
5574;BME280;2563;52.242;7.956;2022-11-03T05:00:06;100268.47;;;9.92;100.00
5574;BME280;2563;52.242;7.956;2022-11-03T05:02:31;100270.19;;;9.92;100.00
5574;BME280;2563;52.242;7.956;2022-11-03T05:04:57;100267.56;;;9.93;100.00
5574;BME280;2563;52.242;7.956;2022-11-03T05:07:33;100259.09;;;9.90;100.00
5574;BME280;2563;52.242;7.956;2022-11-03T05:10:00;100246.34;;;9.87;100.00
5574;BME280;2563;52.242;7.956;2022-11-03T05:12:25;100248.94;;;9.85;100.00
5574;BME280;2563;52.242;7.956;2022-11-03T05:14:51;100242.84;;;9.89;100.00
5574;BME280;2563;52.242;7.956;2022-11-03T05:17:25;100228.28;;;9.88;100.00
5574;BME280;2563;52.242;7.956;2022-11-03T05:20:01;100223.13;;;9.88;100.00
5574;BME280;2563;52.242;7.956;2022-11-03T05:22:30;100223.00;;;9.94;100.00
5574;BME280;2563;52.242;7.956;2022-11-03T05:25:01;100215.16;;;9.99;100.00
5574;BME280;2563;52.242;7.956;2022-11-03T05:27:27;100207.22;;;10.07;100.00
5574;BME280;2563;52.242;7.956;2022-11-03T05:29:56;100205.38;;;10.12;100.00
5574;BME280;2563;52.242;7.956;2022-11-03T05:32:25;100204.50;;;10.13;100.00
5574;BME280;2563;52.242;7.956;2022-11-03T05:34:53;100203.47;;;10.18;100.00
5574;BME280;2563;52.242;7.956;2022-11-03T05:37:30;100194.81;;;10.21;100.00
5574;BME280;2563;52.242;7.956;2022-11-03T05:40:02;100188.16;;;10.14;100.00
5574;BME280;2563;52.242;7.956;2022-11-03T05:42:36;100179.56;;;10.15;100.00
5574;BME280;2563;52.242;7.956;2022-11-03T05:45:14;100172.56;;;10.20;100.00
5574;BME280;2563;52.242;7.956;2022-11-03T05:47:40;100170.78;;;10.22;100.00
5574;BME280;2563;52.242;7.956;2022-11-03T05:50:15;100161.28;;;10.24;100.00
5574;BME280;2563;52.242;7.956;2022-11-03T05:52:43;100159.50;;;10.28;100.00
5574;BME280;2563;52.242;7.956;2022-11-03T05:55:21;100159.78;;;10.17;100.00
5574;BME280;2563;52.242;7.956;2022-11-03T05:57:53;100160.69;;;10.16;100.00
5574;BME280;2563;52.242;7.956;2022-11-03T06:00:24;100157.97;;;10.20;100.00
5574;BME280;2563;52.242;7.956;2022-11-03T06:02:51;100160.69;;;10.16;100.00
5574;BME280;2563;52.242;7.956;2022-11-03T06:05:22;100150.16;;;10.23;100.00
5574;BME280;2563;52.242;7.956;2022-11-03T06:07:48;100151.00;;;10.24;100.00
5574;BME280;2563;52.242;7.956;2022-11-03T06:10:23;100140.69;;;10.26;100.00
5574;BME280;2563;52.242;7.956;2022-11-03T06:12:49;100145.84;;;10.24;100.00
5574;BME280;2563;52.242;7.956;2022-11-03T06:15:29;100148.19;;;10.33;100.00
5574;BME280;2563;52.242;7.956;2022-11-03T06:17:55;100142.09;;;10.37;100.00
5574;BME280;2563;52.242;7.956;2022-11-03T06:20:21;100148.91;;;10.38;100.00
5574;BME280;2563;52.242;7.956;2022-11-03T06:22:47;100133.47;;;10.38;100.00
5574;BME280;2563;52.242;7.956;2022-11-03T06:25:28;100137.72;;;10.39;100.00
5574;BME280;2563;52.242;7.956;2022-11-03T06:28:00;100140.66;;;10.27;100.00
5574;BME280;2563;52.242;7.956;2022-11-03T06:30:33;100134.47;;;10.34;100.00
5574;BME280;2563;52.242;7.956;2022-11-03T06:33:09;100115.38;;;10.41;100.00
5574;BME280;2563;52.242;7.956;2022-11-03T06:35:36;100135.88;;;10.45;100.00
5574;BME280;2563;52.242;7.956;2022-11-03T06:38:02;100120.44;;;10.45;100.00
5574;BME280;2563;52.242;7.956;2022-11-03T06:40:36;100120.44;;;10.45;100.00
5574;BME280;2563;52.242;7.956;2022-11-03T06:43:13;100121.13;;;10.50;100.00
5574;BME280;2563;52.242;7.956;2022-11-03T06:45:45;100108.34;;;10.47;100.00
5574;BME280;2563;52.242;7.956;2022-11-03T06:48:14;100106.72;;;10.44;100.00
5574;BME280;2563;52.242;7.956;2022-11-03T06:50:44;100101.50;;;10.46;100.00
5574;BME280;2563;52.242;7.956;2022-11-03T06:53:09;100112.56;;;10.49;100.00
5574;BME280;2563;52.242;7.956;2022-11-03T06:55:36;100104.88;;;10.48;100.00
5574;BME280;2563;52.242;7.956;2022-11-03T06:58:26;100106.50;;;10.50;100.00
5574;BME280;2563;52.242;7.956;2022-11-03T07:00:54;100113.38;;;10.51;100.00
5574;BME280;2563;52.242;7.956;2022-11-03T07:03:31;100099.63;;;10.51;100.00
5574;BME280;2563;52.242;7.956;2022-11-03T07:06:03;100097.97;;;10.50;100.00
5574;BME280;2563;52.242;7.956;2022-11-03T07:08:35;100099.75;;;10.48;100.00
5574;BME280;2563;52.242;7.956;2022-11-03T07:11:13;100100.44;;;10.53;100.00
5574;BME280;2563;52.242;7.956;2022-11-03T07:13:40;100100.41;;;10.54;100.00
5574;BME280;2563;52.242;7.956;2022-11-03T07:19:10;100079.59;;;10.60;100.00
5574;BME280;2563;52.242;7.956;2022-11-03T07:21:45;100079.53;;;10.63;100.00
5574;BME280;2563;52.242;7.956;2022-11-03T07:24:26;100086.31;;;10.66;100.00
5574;BME280;2563;52.242;7.956;2022-11-03T07:27:04;100079.28;;;10.71;100.00
5574;BME280;2563;52.242;7.956;2022-11-03T07:29:31;100071.41;;;10.76;100.00
5574;BME280;2563;52.242;7.956;2022-11-03T07:31:58;100074.63;;;10.82;100.00
5574;BME280;2563;52.242;7.956;2022-11-03T07:34:26;100064.00;;;10.92;100.00
5574;BME280;2563;52.242;7.956;2022-11-03T07:36:55;100056.97;;;10.97;100.00
5574;BME280;2563;52.242;7.956;2022-11-03T07:39:21;100056.06;;;10.98;100.00
5574;BME280;2563;52.242;7.956;2022-11-03T07:41:47;100047.25;;;11.05;100.00
5574;BME280;2563;52.242;7.956;2022-11-03T07:44:19;100060.88;;;11.09;100.00
5574;BME280;2563;52.242;7.956;2022-11-03T07:46:46;100046.13;;;11.12;100.00
5574;BME280;2563;52.242;7.956;2022-11-03T07:49:23;100052.88;;;11.16;100.00
5574;BME280;2563;52.242;7.956;2022-11-03T07:51:51;100054.44;;;11.20;100.00
5574;BME280;2563;52.242;7.956;2022-11-03T07:54:29;100030.25;;;11.24;100.00
5574;BME280;2563;52.242;7.956;2022-11-03T07:57:00;100030.88;;;11.31;100.00
5574;BME280;2563;52.242;7.956;2022-11-03T07:59:34;100032.34;;;11.38;100.00
5574;BME280;2563;52.242;7.956;2022-11-03T08:02:01;100019.22;;;11.44;100.00
5574;BME280;2563;52.242;7.956;2022-11-03T08:04:29;100020.88;;;11.47;100.00
5574;BME280;2563;52.242;7.956;2022-11-03T08:06:55;100010.44;;;11.50;100.00
5574;BME280;2563;52.242;7.956;2022-11-03T08:09:20;100008.53;;;11.55;100.00
5574;BME280;2563;52.242;7.956;2022-11-03T08:11:47;100001.59;;;11.57;100.00
5574;BME280;2563;52.242;7.956;2022-11-03T08:14:13;100008.06;;;11.67;100.00
5574;BME280;2563;52.242;7.956;2022-11-03T08:16:38;100000.16;;;11.72;100.00
5574;BME280;2563;52.242;7.956;2022-11-03T08:19:04;99994.00;;;11.76;100.00
5574;BME280;2563;52.242;7.956;2022-11-03T08:21:30;99989.50;;;11.81;100.00
5574;BME280;2563;52.242;7.956;2022-11-03T08:23:55;99987.56;;;11.88;100.00
5574;BME280;2563;52.242;7.956;2022-11-03T08:26:21;99989.97;;;11.93;100.00
5574;BME280;2563;52.242;7.956;2022-11-03T08:28:46;99985.56;;;11.95;100.00
5574;BME280;2563;52.242;7.956;2022-11-03T08:31:11;99990.50;;;12.01;100.00
5574;BME280;2563;52.242;7.956;2022-11-03T08:33:37;99986.00;;;12.06;100.00
5574;BME280;2563;52.242;7.956;2022-11-03T08:36:03;99981.50;;;12.11;100.00
5574;BME280;2563;52.242;7.956;2022-11-03T08:38:28;99978.63;;;12.19;100.00
5574;BME280;2563;52.242;7.956;2022-11-03T08:40:55;99977.53;;;12.24;100.00
5574;BME280;2563;52.242;7.956;2022-11-03T08:43:20;99975.00;;;12.23;100.00
5574;BME280;2563;52.242;7.956;2022-11-03T08:45:46;99972.38;;;12.24;100.00
5574;BME280;2563;52.242;7.956;2022-11-03T08:48:12;99966.50;;;12.21;100.00
5574;BME280;2563;52.242;7.956;2022-11-03T08:50:37;99965.34;;;12.28;100.00
5574;BME280;2563;52.242;7.956;2022-11-03T08:53:02;99961.09;;;12.27;100.00
5574;BME280;2563;52.242;7.956;2022-11-03T08:55:28;99955.66;;;12.33;100.00
5574;BME280;2563;52.242;7.956;2022-11-03T08:57:53;99948.97;;;12.29;100.00
5574;BME280;2563;52.242;7.956;2022-11-03T09:00:18;99951.56;;;12.29;100.00
5574;BME280;2563;52.242;7.956;2022-11-03T09:02:44;99941.88;;;12.34;100.00
5574;BME280;2563;52.242;7.956;2022-11-03T09:05:11;99944.28;;;12.39;100.00
5574;BME280;2563;52.242;7.956;2022-11-03T09:07:38;99927.69;;;12.44;100.00
5574;BME280;2563;52.242;7.956;2022-11-03T09:10:07;99915.50;;;12.48;100.00
5574;BME280;2563;52.242;7.956;2022-11-03T09:12:33;99910.16;;;12.52;100.00
5574;BME280;2563;52.242;7.956;2022-11-03T09:14:59;99906.66;;;12.53;100.00
5574;BME280;2563;52.242;7.956;2022-11-03T09:17:24;99890.25;;;12.54;100.00
5574;BME280;2563;52.242;7.956;2022-11-03T09:19:49;99883.22;;;12.58;100.00
5574;BME280;2563;52.242;7.956;2022-11-03T09:22:15;99876.09;;;12.63;100.00
5574;BME280;2563;52.242;7.956;2022-11-03T09:24:40;99868.41;;;12.62;100.00
5574;BME280;2563;52.242;7.956;2022-11-03T09:27:05;99858.56;;;12.71;100.00
5574;BME280;2563;52.242;7.956;2022-11-03T09:29:31;99860.00;;;12.77;100.00
5574;BME280;2563;52.242;7.956;2022-11-03T09:31:56;99838.19;;;12.84;100.00
5574;BME280;2563;52.242;7.956;2022-11-03T09:34:21;99824.84;;;12.93;100.00
5574;BME280;2563;52.242;7.956;2022-11-03T09:36:47;99819.38;;;12.99;100.00
5574;BME280;2563;52.242;7.956;2022-11-03T09:39:12;99804.03;;;12.96;100.00
5574;BME280;2563;52.242;7.956;2022-11-03T09:41:37;99791.88;;;12.98;100.00
5574;BME280;2563;52.242;7.956;2022-11-03T09:44:03;99781.41;;;13.02;100.00
5574;BME280;2563;52.242;7.956;2022-11-03T09:46:29;99753.53;;;13.08;100.00
5574;BME280;2563;52.242;7.956;2022-11-03T09:48:55;99737.66;;;13.16;100.00
5574;BME280;2563;52.242;7.956;2022-11-03T09:51:21;99710.63;;;13.23;100.00
5574;BME280;2563;52.242;7.956;2022-11-03T09:53:47;99699.25;;;13.27;100.00
5574;BME280;2563;52.242;7.956;2022-11-03T09:56:15;99664.34;;;13.36;100.00
5574;BME280;2563;52.242;7.956;2022-11-03T09:58:42;99637.53;;;13.38;100.00
5574;BME280;2563;52.242;7.956;2022-11-03T10:01:09;99608.34;;;13.36;100.00
5574;BME280;2563;52.242;7.956;2022-11-03T10:03:34;99527.00;;;13.44;100.00
5574;BME280;2563;52.242;7.956;2022-11-03T10:06:00;99490.81;;;13.44;100.00
5574;BME280;2563;52.242;7.956;2022-11-03T10:08:28;99475.44;;;13.40;100.00
5574;BME280;2563;52.242;7.956;2022-11-03T10:10:55;99456.75;;;13.35;100.00
5574;BME280;2563;52.242;7.956;2022-11-03T10:13:42;99435.31;;;13.33;100.00
5574;BME280;2563;52.242;7.956;2022-11-03T10:16:11;99408.91;;;13.28;100.00
5574;BME280;2563;52.242;7.956;2022-11-03T10:18:39;99386.31;;;13.32;100.00
5574;BME280;2563;52.242;7.956;2022-11-03T10:21:11;99362.91;;;13.35;100.00
5574;BME280;2563;52.242;7.956;2022-11-03T10:23:38;99353.25;;;13.38;100.00
5574;BME280;2563;52.242;7.956;2022-11-03T10:26:12;99328.19;;;13.55;100.00
5574;BME280;2563;52.242;7.956;2022-11-03T10:28:38;99317.50;;;13.61;100.00
5574;BME280;2563;52.242;7.956;2022-11-03T10:31:06;99275.34;;;13.45;100.00
5574;BME280;2563;52.242;7.956;2022-11-03T10:33:50;99259.31;;;13.54;100.00
5574;BME280;2563;52.242;7.956;2022-11-03T10:38:42;99213.34;;;13.59;100.00
5574;BME280;2563;52.242;7.956;2022-11-03T10:41:16;99195.25;;;13.73;100.00
5574;BME280;2563;52.242;7.956;2022-11-03T10:43:44;99173.22;;;13.82;100.00
5574;BME280;2563;52.242;7.956;2022-11-03T10:46:17;99144.50;;;13.87;100.00
5574;BME280;2563;52.242;7.956;2022-11-03T10:48:44;99110.88;;;13.87;100.00
5574;BME280;2563;52.242;7.956;2022-11-03T10:51:25;98923.41;;;13.92;100.00
5574;BME280;2563;52.242;7.956;2022-11-03T10:53:50;98912.03;;;13.95;100.00
5574;BME280;2563;52.242;7.956;2022-11-03T10:56:15;98951.34;;;13.87;100.00
5574;BME280;2563;52.242;7.956;2022-11-03T10:58:41;98982.56;;;13.84;100.00
5574;BME280;2563;52.242;7.956;2022-11-03T11:01:08;99411.72;;;13.87;100.00
5574;BME280;2563;52.242;7.956;2022-11-03T11:03:40;99477.47;;;13.99;100.00
5574;BME280;2563;52.242;7.956;2022-11-03T11:06:25;99501.97;;;14.08;100.00
5574;BME280;2563;52.242;7.956;2022-11-03T11:08:53;99538.69;;;14.14;100.00
5574;BME280;2563;52.242;7.956;2022-11-03T11:11:21;99580.47;;;14.08;100.00
5574;BME280;2563;52.242;7.956;2022-11-03T11:16:54;99714.38;;;14.36;100.00
5574;BME280;2563;52.242;7.956;2022-11-03T11:19:21;99732.72;;;14.32;100.00
5574;BME280;2563;52.242;7.956;2022-11-03T11:24:12;99768.16;;;14.31;100.00
5574;BME280;2563;52.242;7.956;2022-11-03T11:26:38;99779.53;;;14.44;100.00
5574;BME280;2563;52.242;7.956;2022-11-03T11:32:49;99830.63;;;14.41;100.00
5574;BME280;2563;52.242;7.956;2022-11-03T11:34:49;99858.97;;;14.26;100.00
5574;BME280;2563;52.242;7.956;2022-11-03T11:53:26;99886.03;;;14.03;100.00
5574;BME280;2563;52.242;7.956;2022-11-03T11:55:56;99867.91;;;14.03;100.00
5574;BME280;2563;52.242;7.956;2022-11-03T12:01:00;99851.84;;;13.97;100.00
5574;BME280;2563;52.242;7.956;2022-11-03T12:03:30;99852.13;;;13.91;100.00
5574;BME280;2563;52.242;7.956;2022-11-03T12:05:55;99858.25;;;13.90;100.00
5574;BME280;2563;52.242;7.956;2022-11-03T12:08:27;99853.38;;;14.01;100.00
5574;BME280;2563;52.242;7.956;2022-11-03T12:10:56;99851.53;;;14.03;100.00
5574;BME280;2563;52.242;7.956;2022-11-03T12:16:36;99859.59;;;13.97;100.00
5574;BME280;2563;52.242;7.956;2022-11-03T12:19:33;99858.41;;;14.04;100.00
5574;BME280;2563;52.242;7.956;2022-11-03T12:21:59;99846.28;;;14.04;100.00
5574;BME280;2563;52.242;7.956;2022-11-03T12:26:58;99830.38;;;14.12;100.00
5574;BME280;2563;52.242;7.956;2022-11-03T12:29:24;99825.91;;;13.98;100.00
5574;BME280;2563;52.242;7.956;2022-11-03T12:31:49;99816.56;;;13.96;100.00
5574;BME280;2563;52.242;7.956;2022-11-03T12:34:15;99812.44;;;13.92;100.00
5574;BME280;2563;52.242;7.956;2022-11-03T12:36:41;99802.25;;;13.89;100.00
5574;BME280;2563;52.242;7.956;2022-11-03T12:39:07;99794.22;;;13.93;100.00
5574;BME280;2563;52.242;7.956;2022-11-03T12:41:32;99797.31;;;13.84;100.00
5574;BME280;2563;52.242;7.956;2022-11-03T12:43:57;99782.84;;;13.80;100.00
5574;BME280;2563;52.242;7.956;2022-11-03T12:46:23;99774.88;;;13.67;100.00
5574;BME280;2563;52.242;7.956;2022-11-03T12:48:48;99756.59;;;13.70;100.00
5574;BME280;2563;52.242;7.956;2022-11-03T12:51:16;99745.03;;;13.77;100.00
5574;BME280;2563;52.242;7.956;2022-11-03T12:53:42;99754.16;;;13.85;100.00
5574;BME280;2563;52.242;7.956;2022-11-03T12:56:08;99744.84;;;13.98;100.00
5574;BME280;2563;52.242;7.956;2022-11-03T12:58:34;99760.13;;;14.20;100.00
5574;BME280;2563;52.242;7.956;2022-11-03T13:01:00;99761.50;;;14.43;100.00
5574;BME280;2563;52.242;7.956;2022-11-03T13:03:26;99769.16;;;14.62;100.00
5574;BME280;2563;52.242;7.956;2022-11-03T13:05:52;99777.53;;;14.83;100.00
5574;BME280;2563;52.242;7.956;2022-11-03T13:08:17;99780.03;;;15.16;100.00
5574;BME280;2563;52.242;7.956;2022-11-03T13:10:43;99802.28;;;15.04;100.00
5574;BME280;2563;52.242;7.956;2022-11-03T13:13:08;99805.84;;;14.86;100.00
5574;BME280;2563;52.242;7.956;2022-11-03T13:15:34;99814.00;;;14.62;100.00
5574;BME280;2563;52.242;7.956;2022-11-03T13:18:00;99814.34;;;14.56;100.00
5574;BME280;2563;52.242;7.956;2022-11-03T13:20:26;99809.31;;;14.36;100.00
5574;BME280;2563;52.242;7.956;2022-11-03T13:22:51;99793.50;;;14.24;100.00
5574;BME280;2563;52.242;7.956;2022-11-03T13:25:16;99783.91;;;14.26;100.00
5574;BME280;2563;52.242;7.956;2022-11-03T13:27:43;99777.97;;;14.24;100.00
5574;BME280;2563;52.242;7.956;2022-11-03T13:30:08;99752.25;;;14.21;100.00
5574;BME280;2563;52.242;7.956;2022-11-03T13:32:34;99753.44;;;14.32;100.00
5574;BME280;2563;52.242;7.956;2022-11-03T13:34:59;99742.00;;;14.36;100.00
5574;BME280;2563;52.242;7.956;2022-11-03T13:37:25;99734.25;;;14.36;100.00
5574;BME280;2563;52.242;7.956;2022-11-03T13:39:50;99729.25;;;14.33;100.00
5574;BME280;2563;52.242;7.956;2022-11-03T13:42:15;99720.88;;;14.28;100.00
5574;BME280;2563;52.242;7.956;2022-11-03T13:44:41;99708.84;;;14.26;100.00
5574;BME280;2563;52.242;7.956;2022-11-03T13:47:08;99711.53;;;14.25;100.00
5574;BME280;2563;52.242;7.956;2022-11-03T13:49:34;99719.13;;;14.28;100.00
5574;BME280;2563;52.242;7.956;2022-11-03T13:51:59;99722.53;;;14.29;100.00
5574;BME280;2563;52.242;7.956;2022-11-03T13:54:25;99735.31;;;14.32;100.00
5574;BME280;2563;52.242;7.956;2022-11-03T13:56:50;99724.91;;;14.33;100.00
5574;BME280;2563;52.242;7.956;2022-11-03T13:59:15;99724.72;;;14.36;100.00
5574;BME280;2563;52.242;7.956;2022-11-03T14:01:41;99718.53;;;14.39;100.00
5574;BME280;2563;52.242;7.956;2022-11-03T14:04:07;99709.63;;;14.44;100.00
5574;BME280;2563;52.242;7.956;2022-11-03T14:06:32;99715.81;;;14.42;100.00
5574;BME280;2563;52.242;7.956;2022-11-03T14:08:57;99717.66;;;14.40;100.00
5574;BME280;2563;52.242;7.956;2022-11-03T14:11:23;99715.38;;;14.34;100.00
5574;BME280;2563;52.242;7.956;2022-11-03T14:14:07;99710.53;;;14.28;100.00